Terminal Aerodrome Forecast
Issued by NWS Wilmington, OH

Home | Current Version | Previous Version | Text Only | Print | Product List | Glossary On
Versions: 1 2 3 4 5 6 7 8 9 10 11 12 13 14 15 16 17 18 19 20 21 22 23 24 25 26 27 28 29 30 31 32
569
FTUS41 KILN 191735
TAFCVG
TAF
KCVG 191735Z 1918/2024 11006KT P6SM SCT130 OVC200
     FM192300 10009KT P6SM VCSH OVC050
     FM200000 10006KT 3SM -RA OVC040
     FM200200 11009KT 3SM -RA OVC025
     FM200400 11008KT 3SM -RA BR OVC015
     FM200600 12007KT 2SM -RA BR OVC009
     FM200800 16005KT 2SM BR VCSH OVC005
     FM201200 21006KT 3SM BR OVC003
     FM201400 22007KT 3SM BR OVC005
     FM201600 22008KT P6SM BKN012=

USA.gov is the U.S. government's official web portal to all federal, state and local government web resources and services.